createdAt,value
2023-01-27T00:01:06.143Z,8.90
2023-01-27T00:03:34.139Z,8.93
2023-01-27T00:06:01.329Z,9.27
2023-01-27T00:08:29.925Z,8.93
2023-01-27T00:11:19.256Z,9.17
2023-01-27T00:13:46.305Z,8.27
2023-01-27T00:16:13.379Z,7.77
2023-01-27T00:18:40.434Z,8.40
2023-01-27T00:21:26.030Z,9.10
2023-01-27T00:24:12.217Z,10.17
2023-01-27T00:26:39.235Z,8.90
2023-01-27T00:29:06.287Z,9.73
2023-01-27T00:31:51.845Z,10.23
2023-01-27T00:34:19.230Z,9.23
2023-01-27T00:36:46.455Z,10.33
2023-01-27T00:39:14.303Z,9.90
2023-01-27T00:41:42.025Z,9.27
2023-01-27T00:44:13.685Z,7.63
2023-01-27T00:46:42.006Z,7.00
2023-01-27T00:49:10.717Z,7.00
2023-01-27T00:51:38.268Z,8.10
2023-01-27T00:54:05.800Z,7.57
2023-01-27T00:56:34.559Z,9.13
2023-01-27T00:59:01.879Z,9.63
2023-01-27T01:01:29.816Z,9.10
2023-01-27T01:03:59.561Z,6.50
2023-01-27T01:07:03.999Z,7.43
2023-01-27T01:09:30.983Z,6.50
2023-01-27T01:11:57.983Z,6.23
2023-01-27T01:14:24.917Z,6.07
2023-01-27T01:16:52.158Z,5.87
2023-01-27T01:19:19.698Z,5.77
2023-01-27T01:21:46.670Z,4.57
2023-01-27T01:24:14.071Z,6.27
2023-01-27T01:26:41.352Z,6.13
2023-01-27T01:29:08.363Z,7.07
2023-01-27T01:31:35.500Z,6.40
2023-01-27T01:34:02.533Z,6.53
2023-01-27T01:36:29.821Z,7.13
2023-01-27T01:38:58.026Z,6.93
2023-01-27T01:41:26.639Z,6.37
2023-01-27T01:43:54.052Z,6.43
2023-01-27T01:46:21.365Z,5.83
2023-01-27T01:48:58.099Z,5.33
2023-01-27T01:51:37.404Z,5.43
2023-01-27T01:54:09.746Z,6.33
2023-01-27T01:57:01.437Z,6.37
2023-01-27T01:59:55.077Z,6.90
2023-01-27T02:02:26.315Z,6.77
2023-01-27T02:05:05.313Z,6.87
2023-01-27T02:07:54.063Z,6.67
2023-01-27T02:10:21.058Z,8.03
2023-01-27T02:12:48.038Z,6.70
2023-01-27T02:15:15.636Z,7.00
2023-01-27T02:17:43.344Z,7.67
2023-01-27T02:20:41.322Z,7.53
2023-01-27T02:23:40.895Z,8.13
2023-01-27T02:26:17.418Z,7.03
2023-01-27T02:28:44.699Z,7.80
2023-01-27T02:31:12.117Z,7.10
2023-01-27T02:33:39.489Z,10.03
2023-01-27T02:36:12.177Z,8.27
2023-01-27T02:38:51.733Z,7.77
2023-01-27T02:41:50.893Z,8.00
2023-01-27T02:44:18.418Z,7.53
2023-01-27T02:46:45.658Z,7.27
2023-01-27T02:49:13.019Z,7.70
2023-01-27T02:51:40.263Z,7.87
2023-01-27T02:54:07.577Z,7.47
2023-01-27T02:56:35.979Z,7.47
2023-01-27T02:59:03.057Z,8.70
2023-01-27T03:01:33.025Z,6.87
2023-01-27T03:04:00.433Z,7.50
2023-01-27T03:06:27.467Z,7.30
2023-01-27T03:08:54.580Z,6.67
2023-01-27T03:11:40.196Z,6.53
2023-01-27T03:14:09.358Z,6.50
2023-01-27T03:16:55.182Z,6.67
2023-01-27T03:19:22.228Z,7.03
2023-01-27T03:21:53.302Z,7.17
2023-01-27T03:24:21.200Z,6.97
2023-01-27T03:26:48.528Z,7.67
2023-01-27T03:29:34.031Z,8.43
2023-01-27T03:32:01.023Z,7.77
2023-01-27T03:34:28.254Z,8.80
2023-01-27T03:37:14.060Z,8.37
2023-01-27T03:40:00.155Z,8.60
2023-01-27T03:42:46.112Z,8.20
2023-01-27T03:45:31.674Z,8.63
2023-01-27T03:47:58.678Z,8.77
2023-01-27T03:50:38.168Z,8.60
2023-01-27T03:53:06.539Z,9.00
2023-01-27T03:55:35.460Z,9.30
2023-01-27T03:58:18.565Z,9.00
2023-01-27T04:00:55.071Z,11.80
2023-01-27T04:03:42.865Z,12.67
2023-01-27T04:06:41.882Z,12.07
2023-01-27T04:09:10.585Z,12.53
2023-01-27T04:11:56.261Z,11.87
2023-01-27T04:14:45.822Z,12.47
2023-01-27T04:17:17.855Z,13.77
2023-01-27T04:19:45.721Z,13.47
2023-01-27T04:22:14.277Z,12.87
2023-01-27T04:24:42.133Z,13.33
2023-01-27T04:27:12.390Z,14.57
2023-01-27T04:29:41.808Z,14.53
2023-01-27T04:32:11.022Z,14.47
2023-01-27T04:34:39.166Z,14.80
2023-01-27T04:37:08.158Z,13.50
2023-01-27T04:39:36.363Z,14.67
2023-01-27T04:42:03.872Z,14.33
2023-01-27T04:44:31.480Z,13.77
2023-01-27T04:46:58.593Z,14.97
2023-01-27T04:49:27.256Z,15.23
2023-01-27T04:51:55.349Z,14.13
2023-01-27T04:54:22.800Z,15.20
2023-01-27T04:57:01.577Z,14.30
2023-01-27T04:59:29.104Z,14.93
2023-01-27T05:01:56.727Z,13.77
2023-01-27T05:04:24.663Z,13.07
2023-01-27T05:06:51.872Z,14.80
2023-01-27T05:09:19.174Z,13.80
2023-01-27T05:11:46.703Z,13.77
2023-01-27T05:14:14.788Z,14.27
2023-01-27T05:16:41.829Z,13.80
2023-01-27T05:19:09.916Z,13.97
2023-01-27T05:21:37.018Z,13.10
2023-01-27T05:24:04.549Z,14.30
2023-01-27T05:26:31.839Z,12.93
2023-01-27T05:28:59.322Z,12.57
2023-01-27T05:31:31.965Z,14.33
2023-01-27T05:34:00.837Z,12.83
2023-01-27T05:36:29.015Z,13.30
2023-01-27T05:38:58.241Z,13.67
2023-01-27T05:41:26.757Z,12.67
2023-01-27T05:43:56.048Z,13.23
2023-01-27T05:46:26.134Z,12.70
2023-01-27T05:48:55.754Z,12.87
2023-01-27T05:51:24.943Z,12.70
2023-01-27T05:53:54.259Z,11.90
2023-01-27T05:56:23.064Z,12.90
2023-01-27T05:58:50.027Z,12.63
2023-01-27T06:01:22.834Z,13.40
2023-01-27T06:03:50.213Z,12.37
2023-01-27T06:06:19.471Z,12.90
2023-01-27T06:08:48.023Z,12.30
2023-01-27T06:11:15.981Z,12.40
2023-01-27T06:13:43.084Z,12.27
2023-01-27T06:16:12.839Z,12.00
2023-01-27T06:18:40.778Z,12.57
2023-01-27T06:21:10.109Z,12.47
2023-01-27T06:23:38.487Z,12.03
2023-01-27T06:26:17.465Z,11.13
2023-01-27T06:28:45.779Z,12.40
2023-01-27T06:31:16.224Z,12.10
2023-01-27T06:33:43.682Z,11.53
2023-01-27T06:36:13.394Z,12.03
2023-01-27T06:38:40.793Z,12.07
2023-01-27T06:41:08.020Z,14.47
2023-01-27T06:43:35.054Z,12.93
2023-01-27T06:46:05.234Z,12.03
2023-01-27T06:48:33.987Z,12.37
2023-01-27T06:51:01.542Z,11.87
2023-01-27T06:53:28.592Z,12.50
2023-01-27T06:55:58.113Z,13.40
2023-01-27T06:58:25.998Z,12.27
2023-01-27T07:00:53.797Z,11.50
2023-01-27T07:03:21.304Z,11.83
2023-01-27T07:05:48.303Z,11.43
2023-01-27T07:08:15.433Z,12.10
2023-01-27T07:10:42.710Z,11.13
2023-01-27T07:13:14.836Z,12.30
2023-01-27T07:15:42.235Z,11.93
2023-01-27T07:18:14.635Z,11.77
2023-01-27T07:20:42.126Z,12.43
2023-01-27T07:23:10.436Z,12.03
2023-01-27T07:25:37.987Z,11.63
2023-01-27T07:28:06.504Z,11.37
2023-01-27T07:30:34.677Z,12.27
2023-01-27T07:33:19.854Z,12.20
2023-01-27T07:35:50.181Z,13.07
2023-01-27T07:38:17.498Z,12.77
2023-01-27T07:40:44.446Z,12.33
2023-01-27T07:43:12.456Z,12.37
2023-01-27T07:45:39.816Z,12.07
2023-01-27T07:48:08.597Z,12.23
2023-01-27T07:50:36.580Z,12.40
2023-01-27T07:53:05.078Z,12.57
2023-01-27T07:55:33.469Z,11.47
2023-01-27T07:58:00.671Z,11.43
2023-01-27T08:00:29.142Z,11.83
2023-01-27T08:02:57.747Z,12.80
2023-01-27T08:05:25.301Z,12.13
2023-01-27T08:07:54.057Z,11.77
2023-01-27T08:10:21.751Z,11.23
2023-01-27T08:12:48.884Z,12.00
2023-01-27T08:15:18.837Z,11.53
2023-01-27T08:17:57.004Z,10.60
2023-01-27T08:20:26.772Z,10.97
2023-01-27T08:22:53.887Z,10.50
2023-01-27T08:25:21.703Z,10.40
2023-01-27T08:27:53.519Z,10.70
2023-01-27T08:30:21.179Z,10.80
2023-01-27T08:32:48.710Z,9.57
2023-01-27T08:35:15.837Z,9.23
2023-01-27T08:37:42.873Z,8.33
2023-01-27T08:40:11.074Z,7.77
2023-01-27T08:42:38.588Z,7.37
2023-01-27T08:45:06.321Z,7.97
2023-01-27T08:47:33.530Z,6.77
2023-01-27T08:50:00.573Z,7.07
2023-01-27T08:52:30.968Z,6.97
2023-01-27T08:54:58.855Z,7.33
2023-01-27T08:57:26.271Z,7.27
2023-01-27T08:59:53.346Z,7.07
2023-01-27T09:02:22.666Z,8.47
2023-01-27T09:04:49.940Z,8.80
2023-01-27T09:07:18.180Z,10.40
2023-01-27T09:09:51.224Z,9.83
2023-01-27T09:12:21.105Z,10.27
2023-01-27T09:14:48.407Z,9.70
2023-01-27T09:17:19.805Z,10.23
2023-01-27T09:19:47.595Z,10.87
2023-01-27T09:22:14.864Z,9.20
2023-01-27T09:24:41.857Z,8.87
2023-01-27T09:27:09.061Z,9.20
2023-01-27T09:29:37.065Z,8.97
2023-01-27T09:32:04.873Z,9.47
2023-01-27T09:34:32.153Z,7.97
2023-01-27T09:37:05.022Z,9.53
2023-01-27T09:39:35.543Z,8.00
2023-01-27T09:42:28.733Z,8.50
2023-01-27T09:45:10.917Z,9.30
2023-01-27T09:48:03.095Z,9.00
2023-01-27T09:50:38.214Z,8.30
2023-01-27T09:53:19.536Z,8.67
2023-01-27T09:56:07.111Z,8.13
2023-01-27T09:59:18.777Z,8.70
2023-01-27T10:01:57.718Z,7.17
2023-01-27T10:04:59.464Z,8.10
2023-01-27T10:07:44.445Z,7.77
2023-01-27T10:10:30.865Z,7.87
2023-01-27T10:13:22.906Z,7.73
2023-01-27T10:16:05.184Z,6.03
2023-01-27T10:18:44.316Z,5.73
2023-01-27T10:21:43.390Z,6.50
2023-01-27T10:24:51.012Z,6.00
2023-01-27T10:27:24.071Z,6.40
2023-01-27T10:30:13.232Z,6.70
2023-01-27T10:32:52.455Z,6.40
2023-01-27T10:35:39.865Z,6.03
2023-01-27T10:38:30.751Z,8.17
2023-01-27T10:41:34.375Z,8.23
2023-01-27T10:44:23.291Z,8.57
2023-01-27T10:47:04.197Z,8.50
2023-01-27T10:49:56.259Z,8.83
2023-01-27T10:52:46.635Z,9.00
2023-01-27T10:55:17.064Z,8.70
2023-01-27T10:57:54.171Z,10.27
2023-01-27T11:01:18.907Z,8.87
2023-01-27T11:03:42.975Z,9.00
2023-01-27T11:06:21.877Z,9.80
2023-01-27T11:08:54.423Z,8.67
2023-01-27T11:11:43.858Z,8.77
2023-01-27T11:14:27.662Z,9.10
2023-01-27T11:17:04.044Z,8.53
2023-01-27T11:19:38.377Z,8.57
2023-01-27T11:22:13.885Z,9.53
2023-01-27T11:25:09.251Z,10.13
2023-01-27T11:28:03.664Z,9.20
2023-01-27T11:31:10.809Z,9.03
2023-01-27T11:34:06.528Z,8.53
2023-01-27T11:36:36.662Z,8.77
2023-01-27T11:39:06.880Z,8.13
2023-01-27T11:41:51.543Z,9.13
2023-01-27T11:44:21.342Z,8.77
2023-01-27T11:46:50.818Z,8.73
2023-01-27T11:49:30.718Z,9.27
2023-01-27T11:52:14.879Z,8.30
2023-01-27T11:55:05.763Z,9.10
2023-01-27T11:57:33.757Z,8.63
2023-01-27T12:00:03.306Z,8.40
2023-01-27T12:02:36.261Z,8.63
2023-01-27T12:05:25.081Z,9.37
2023-01-27T12:07:59.187Z,9.07
2023-01-27T12:10:43.996Z,9.17
2023-01-27T12:13:25.025Z,9.90
2023-01-27T12:15:56.874Z,8.87
2023-01-27T12:18:24.187Z,11.63
2023-01-27T12:20:59.185Z,9.60
2023-01-27T12:23:34.380Z,8.63
2023-01-27T12:26:10.819Z,8.57
2023-01-27T12:28:52.388Z,7.80
2023-01-27T12:31:33.145Z,8.33
2023-01-27T12:34:17.393Z,8.63
2023-01-27T12:36:45.498Z,8.70
2023-01-27T12:39:49.402Z,8.87
2023-01-27T12:42:38.381Z,8.67
2023-01-27T12:45:22.819Z,7.53
2023-01-27T12:48:01.720Z,8.07
2023-01-27T12:50:34.976Z,8.83
2023-01-27T12:53:14.042Z,8.90
2023-01-27T12:56:01.457Z,8.43
2023-01-27T12:58:47.080Z,8.40
2023-01-27T13:01:32.874Z,9.00
2023-01-27T13:04:23.654Z,8.47
2023-01-27T13:07:03.863Z,8.87
2023-01-27T13:09:45.623Z,8.13
2023-01-27T13:12:31.839Z,10.20
2023-01-27T13:15:15.643Z,9.00
2023-01-27T13:17:45.817Z,7.73
2023-01-27T13:20:28.483Z,8.43
2023-01-27T13:23:02.512Z,8.90
2023-01-27T13:26:11.433Z,9.67
2023-01-27T13:28:54.443Z,8.83
2023-01-27T13:31:52.911Z,8.20
2023-01-27T13:34:38.449Z,8.20
2023-01-27T13:37:24.740Z,8.37
2023-01-27T13:40:04.088Z,8.40
2023-01-27T13:42:44.700Z,8.07
2023-01-27T13:45:41.881Z,8.37
2023-01-27T13:48:33.667Z,8.30
2023-01-27T13:51:18.427Z,8.20
2023-01-27T13:53:47.933Z,10.37
2023-01-27T13:56:21.184Z,11.37
2023-01-27T13:58:53.774Z,12.13
2023-01-27T14:01:54.969Z,12.07
2023-01-27T14:04:37.825Z,12.30
2023-01-27T14:07:29.283Z,12.13
2023-01-27T14:10:21.262Z,13.47
2023-01-27T14:13:16.526Z,12.03
2023-01-27T14:15:49.846Z,12.63
2023-01-27T14:18:28.283Z,12.40
2023-01-27T14:21:13.358Z,11.90
2023-01-27T14:24:01.007Z,10.20
2023-01-27T14:26:47.837Z,10.67
2023-01-27T14:29:15.071Z,11.77
2023-01-27T14:31:46.885Z,10.97
2023-01-27T14:34:31.057Z,11.03
2023-01-27T14:37:07.168Z,10.73
2023-01-27T14:39:57.417Z,11.13
2023-01-27T14:42:55.062Z,10.40
2023-01-27T14:45:50.861Z,10.80
2023-01-27T14:48:43.456Z,10.47
2023-01-27T14:51:34.255Z,10.30
2023-01-27T14:54:26.123Z,11.30
2023-01-27T14:57:08.178Z,12.43
2023-01-27T14:59:50.446Z,13.57
2023-01-27T15:02:39.592Z,13.07
2023-01-27T15:05:14.876Z,11.73
2023-01-27T15:08:05.409Z,11.27
2023-01-27T15:10:34.040Z,11.90
2023-01-27T15:13:10.455Z,12.37
2023-01-27T15:15:50.928Z,12.53
2023-01-27T15:18:36.297Z,12.10
2023-01-27T15:21:28.204Z,11.90
2023-01-27T15:23:58.413Z,12.60
2023-01-27T15:26:28.918Z,11.90
2023-01-27T15:28:58.151Z,12.37
2023-01-27T15:31:30.332Z,11.20
2023-01-27T15:34:03.813Z,11.33
2023-01-27T15:37:01.227Z,11.33
2023-01-27T15:39:40.350Z,11.40
2023-01-27T15:42:11.695Z,11.53
2023-01-27T15:44:41.283Z,11.80
2023-01-27T15:47:19.250Z,12.87
2023-01-27T15:49:49.915Z,11.73
2023-01-27T15:52:31.878Z,12.10
2023-01-27T15:55:02.695Z,11.87
2023-01-27T15:57:38.702Z,13.50
2023-01-27T16:00:30.768Z,12.17
2023-01-27T16:03:02.889Z,13.37
2023-01-27T16:05:37.793Z,12.77
2023-01-27T16:08:15.359Z,12.33
2023-01-27T16:10:43.191Z,13.20
2023-01-27T16:13:30.856Z,13.50
2023-01-27T16:16:19.842Z,12.17
2023-01-27T16:19:11.084Z,12.10
2023-01-27T16:21:57.812Z,12.93
2023-01-27T16:24:44.660Z,13.20
2023-01-27T16:27:14.626Z,13.17
2023-01-27T16:29:59.477Z,12.67
2023-01-27T16:32:38.233Z,12.53
2023-01-27T16:35:16.102Z,12.27
2023-01-27T16:38:22.928Z,12.43
2023-01-27T16:41:04.458Z,13.50
2023-01-27T16:43:50.123Z,14.10
2023-01-27T16:46:32.322Z,13.97
2023-01-27T16:49:01.607Z,12.93
2023-01-27T16:51:29.642Z,12.63
2023-01-27T16:54:00.204Z,12.87
2023-01-27T16:56:35.797Z,12.47
2023-01-27T16:59:10.416Z,13.60
2023-01-27T17:01:50.739Z,13.37
2023-01-27T17:04:27.547Z,13.83
2023-01-27T17:07:05.013Z,14.80
2023-01-27T17:09:35.703Z,13.47
2023-01-27T17:12:02.905Z,13.50
2023-01-27T17:14:35.256Z,13.77
2023-01-27T17:17:06.028Z,14.87
2023-01-27T17:19:36.435Z,14.03
2023-01-27T17:22:06.997Z,14.90
2023-01-27T17:24:37.849Z,15.03
2023-01-27T17:27:30.345Z,15.27
2023-01-27T17:30:24.314Z,16.67
2023-01-27T17:32:58.334Z,15.37
2023-01-27T17:35:29.190Z,15.50
2023-01-27T17:38:15.256Z,15.70
2023-01-27T17:40:47.852Z,16.03
2023-01-27T17:43:36.965Z,12.90
2023-01-27T17:46:22.513Z,11.80
2023-01-27T17:48:54.102Z,10.70
2023-01-27T17:51:37.690Z,11.87
2023-01-27T17:54:23.152Z,12.17
2023-01-27T17:56:56.605Z,10.37
2023-01-27T17:59:26.832Z,11.20
2023-01-27T18:01:56.389Z,11.93
2023-01-27T18:04:24.264Z,12.40
2023-01-27T18:06:52.690Z,12.17
2023-01-27T18:09:26.649Z,11.60
2023-01-27T18:12:00.346Z,11.70
2023-01-27T18:14:33.944Z,13.07
2023-01-27T18:17:06.297Z,11.37
2023-01-27T18:19:34.522Z,10.93
2023-01-27T18:22:16.591Z,10.53
2023-01-27T18:25:06.064Z,11.27
2023-01-27T18:27:37.980Z,10.60
2023-01-27T18:30:14.294Z,11.33
2023-01-27T18:32:44.510Z,10.67
2023-01-27T18:35:25.699Z,11.30
2023-01-27T18:38:02.444Z,11.67
2023-01-27T18:40:31.129Z,10.73
2023-01-27T18:42:59.232Z,11.40
2023-01-27T18:45:27.383Z,9.63
2023-01-27T18:47:55.450Z,12.97
2023-01-27T18:50:25.619Z,13.53
2023-01-27T18:52:53.434Z,17.47
2023-01-27T18:55:29.336Z,13.70
2023-01-27T18:57:58.388Z,13.67
2023-01-27T19:00:30.844Z,13.83
2023-01-27T19:03:01.540Z,13.57
2023-01-27T19:05:31.869Z,14.03
2023-01-27T19:07:59.002Z,13.33
2023-01-27T19:10:30.669Z,14.97
2023-01-27T19:13:00.217Z,14.20
2023-01-27T19:15:49.610Z,14.50
2023-01-27T19:18:20.525Z,15.57
2023-01-27T19:20:47.526Z,16.17
2023-01-27T19:23:16.275Z,16.30
2023-01-27T19:25:46.714Z,18.47
2023-01-27T19:28:32.324Z,19.73
2023-01-27T19:31:00.492Z,19.33
2023-01-27T19:33:29.108Z,20.63
2023-01-27T19:36:20.996Z,20.40
2023-01-27T19:38:49.223Z,20.07
2023-01-27T19:41:16.599Z,21.03
2023-01-27T19:43:47.721Z,22.40
2023-01-27T19:46:18.648Z,21.70
2023-01-27T19:48:45.680Z,20.50
2023-01-27T19:51:13.099Z,18.43
2023-01-27T19:53:40.153Z,20.93
2023-01-27T19:56:32.497Z,20.50
2023-01-27T19:58:59.535Z,18.90
2023-01-27T20:01:26.878Z,21.27
2023-01-27T20:03:54.862Z,22.13
2023-01-27T20:06:24.398Z,21.03
2023-01-27T20:08:54.802Z,20.00
2023-01-27T20:11:27.621Z,20.33
2023-01-27T20:13:54.589Z,20.07
2023-01-27T20:16:22.821Z,20.23
2023-01-27T20:18:51.032Z,21.53
2023-01-27T20:21:18.698Z,20.80
2023-01-27T20:23:45.709Z,19.67
2023-01-27T20:26:15.332Z,20.03
2023-01-27T20:28:42.757Z,19.70
2023-01-27T20:31:14.953Z,18.77
2023-01-27T20:33:41.986Z,21.70
2023-01-27T20:36:14.314Z,19.77
2023-01-27T20:38:43.107Z,19.60
2023-01-27T20:41:12.948Z,20.63
2023-01-27T20:43:40.278Z,19.53
2023-01-27T20:46:13.198Z,19.63
2023-01-27T20:48:40.238Z,19.23
2023-01-27T20:51:10.081Z,18.97
2023-01-27T20:53:43.319Z,18.57
2023-01-27T20:56:10.599Z,20.17
2023-01-27T20:58:37.620Z,19.43
2023-01-27T21:01:13.783Z,19.00
2023-01-27T21:03:41.780Z,18.40
2023-01-27T21:06:10.758Z,17.77
2023-01-27T21:08:38.018Z,16.63
2023-01-27T21:11:07.990Z,17.83
2023-01-27T21:13:35.018Z,17.63
2023-01-27T21:16:02.551Z,17.80
2023-01-27T21:18:30.540Z,18.33
2023-01-27T21:21:02.803Z,19.00
2023-01-27T21:23:33.350Z,17.73
2023-01-27T21:26:11.844Z,17.23
2023-01-27T21:28:39.180Z,18.53
2023-01-27T21:31:11.465Z,18.03
2023-01-27T21:33:39.738Z,18.70
2023-01-27T21:36:10.464Z,17.77
2023-01-27T21:38:38.664Z,18.40
2023-01-27T21:41:10.710Z,17.27
2023-01-27T21:43:56.519Z,18.23
2023-01-27T21:46:24.633Z,15.83
2023-01-27T21:48:51.688Z,12.77
2023-01-27T21:51:18.883Z,11.77
2023-01-27T21:53:45.910Z,11.70
2023-01-27T21:56:13.482Z,12.13
2023-01-27T21:58:41.044Z,12.43
2023-01-27T22:01:11.689Z,12.10
2023-01-27T22:03:39.298Z,12.37
2023-01-27T22:06:08.024Z,12.87
2023-01-27T22:08:36.348Z,12.97
2023-01-27T22:11:04.759Z,12.93
2023-01-27T22:13:32.267Z,13.20
2023-01-27T22:16:00.385Z,12.03
2023-01-27T22:18:27.494Z,13.50
2023-01-27T22:20:54.604Z,13.57
2023-01-27T22:23:23.823Z,9.97
2023-01-27T22:25:52.496Z,13.73
2023-01-27T22:28:24.157Z,16.40
2023-01-27T22:30:51.507Z,15.67
2023-01-27T22:33:18.897Z,16.83
2023-01-27T22:35:46.280Z,18.27
2023-01-27T22:38:13.959Z,18.67
2023-01-27T22:40:41.317Z,20.10
2023-01-27T22:43:10.887Z,20.60
2023-01-27T22:45:41.111Z,18.63
2023-01-27T22:48:09.121Z,19.57
2023-01-27T22:50:37.468Z,19.20
2023-01-27T22:53:05.538Z,19.33
2023-01-27T22:55:33.061Z,19.73
2023-01-27T22:58:00.554Z,19.03
2023-01-27T23:00:27.588Z,19.93
2023-01-27T23:02:54.951Z,21.03
2023-01-27T23:05:22.014Z,19.07
2023-01-27T23:07:49.251Z,19.33
2023-01-27T23:10:17.120Z,19.10
2023-01-27T23:12:44.634Z,20.10
2023-01-27T23:15:13.562Z,20.23
2023-01-27T23:17:41.058Z,20.20
2023-01-27T23:20:09.156Z,19.90
2023-01-27T23:22:37.009Z,20.77
2023-01-27T23:25:04.659Z,17.33
2023-01-27T23:27:32.941Z,15.23
2023-01-27T23:30:00.180Z,14.50
2023-01-27T23:32:27.675Z,13.67
2023-01-27T23:34:54.939Z,12.30
2023-01-27T23:37:22.234Z,13.33
2023-01-27T23:39:50.379Z,13.30
2023-01-27T23:42:18.578Z,12.60
2023-01-27T23:44:47.299Z,12.87
2023-01-27T23:47:16.860Z,12.33
2023-01-27T23:49:44.127Z,12.60
2023-01-27T23:52:11.259Z,11.90
2023-01-27T23:54:38.958Z,13.30
2023-01-27T23:57:06.474Z,13.20
2023-01-27T23:59:33.565Z,13.53
